N5383D KZLU-KUZA
Flight info
| Callsign | N5383D |
|---|---|
| Flight time | N/A |
| Altitude | 1500 |
| Route | VFR VIA VISUAL LANDMARKS I85 GAFFNEY LAKE WYLIE |
| Aircraft | C172/L-VGDW/C |
Departure
| Time | N/A |
|---|---|
| Airport | KZLU |
Arrival
| Time | 2026-04-25 18:48 |
|---|---|
| Airport | Rock Hill - York County Airport (KUZA) |
| Time | Latitude | Longitude | Altitude | Speed | Heading |
|---|---|---|---|---|---|
| 2026-04-25 17:00 | 33.98146 | -83.96207 | 1025 ft | 0 kts | 112° |
| 2026-04-25 17:07 | 33.98145 | -83.96205 | 1025 ft | 4 kts | 114° |
| 2026-04-25 17:07 | 33.98143 | -83.96198 | 1025 ft | 0 kts | 112° |
| 2026-04-25 17:08 | 33.98108 | -83.96170 | 1020 ft | 16 kts | 155° |
| 2026-04-25 17:08 | 33.98127 | -83.96066 | 1016 ft | 10 kts | 70° |
| 2026-04-25 17:08 | 33.98152 | -83.95980 | 1013 ft | 11 kts | 76° |
| 2026-04-25 17:09 | 33.98154 | -83.95971 | 1012 ft | 0 kts | 77° |
| 2026-04-25 17:09 | 33.98177 | -83.95898 | 1009 ft | 20 kts | 74° |
| 2026-04-25 17:09 | 33.98214 | -83.95717 | 999 ft | 13 kts | 136° |
| 2026-04-25 17:09 | 33.98165 | -83.95721 | 996 ft | 11 kts | 206° |
| 2026-04-25 17:10 | 33.98112 | -83.95775 | 996 ft | 16 kts | 147° |
| 2026-04-25 17:10 | 33.98030 | -83.95722 | 995 ft | 14 kts | 120° |
| 2026-04-25 17:10 | 33.98086 | -83.95592 | 991 ft | 17 kts | 53° |
| 2026-04-25 17:10 | 33.98109 | -83.95510 | 984 ft | 5 kts | 141° |
| 2026-04-25 17:11 | 33.98111 | -83.95521 | 984 ft | 6 kts | 229° |
| 2026-04-25 17:11 | 33.98100 | -83.95537 | 985 ft | 2 kts | 240° |
| 2026-04-25 17:11 | 33.98033 | -83.95697 | 993 ft | 42 kts | 243° |
| 2026-04-25 17:11 | 33.97860 | -83.96103 | 1066 ft | 57 kts | 234° |
| 2026-04-25 17:12 | 33.97665 | -83.96504 | 1220 ft | 54 kts | 237° |
| 2026-04-25 17:12 | 33.97417 | -83.96887 | 1296 ft | 63 kts | 223° |
| 2026-04-25 17:12 | 33.97075 | -83.97265 | 1560 ft | 70 kts | 221° |
| 2026-04-25 17:12 | 33.96643 | -83.97737 | 1539 ft | 103 kts | 221° |
| 2026-04-25 17:13 | 33.96073 | -83.98344 | 1548 ft | 117 kts | 223° |
| 2026-04-25 17:13 | 33.95696 | -83.98823 | 1489 ft | 117 kts | 238° |
| 2026-04-25 17:13 | 33.95941 | -83.99939 | 1509 ft | 115 kts | 318° |
| 2026-04-25 17:13 | 33.96527 | -84.00551 | 1515 ft | 109 kts | 311° |
| 2026-04-25 17:14 | 33.97129 | -84.01151 | 1521 ft | 117 kts | 317° |
| 2026-04-25 17:14 | 33.97756 | -84.01825 | 1512 ft | 124 kts | 312° |
| 2026-04-25 17:14 | 33.98402 | -84.02482 | 1518 ft | 116 kts | 314° |
| 2026-04-25 17:14 | 33.99001 | -84.03116 | 1499 ft | 112 kts | 316° |
| 2026-04-25 17:15 | 33.99570 | -84.03750 | 1505 ft | 115 kts | 316° |
| 2026-04-25 17:15 | 34.00153 | -84.04342 | 1665 ft | 100 kts | 313° |
| 2026-04-25 17:15 | 34.00649 | -84.04845 | 1857 ft | 89 kts | 308° |
| 2026-04-25 17:15 | 34.00902 | -84.05460 | 1941 ft | 86 kts | 310° |
| 2026-04-25 17:16 | 34.01522 | -84.05575 | 2059 ft | 98 kts | 6° |
| 2026-04-25 17:16 | 34.02164 | -84.05250 | 2107 ft | 101 kts | 13° |
| 2026-04-25 17:16 | 34.02830 | -84.05111 | 2156 ft | 103 kts | 25° |
| 2026-04-25 17:16 | 34.03215 | -84.04398 | 2161 ft | 105 kts | 63° |
| 2026-04-25 17:17 | 34.03589 | -84.03636 | 2185 ft | 106 kts | 59° |
| 2026-04-25 17:17 | 34.03984 | -84.02880 | 2088 ft | 110 kts | 56° |
| 2026-04-25 17:17 | 34.04402 | -84.02082 | 2006 ft | 110 kts | 55° |
| 2026-04-25 17:17 | 34.04786 | -84.01337 | 2003 ft | 103 kts | 60° |
| 2026-04-25 17:18 | 34.05187 | -84.00623 | 2008 ft | 103 kts | 58° |
| 2026-04-25 17:18 | 34.05560 | -83.99868 | 1973 ft | 105 kts | 57° |
| 2026-04-25 17:18 | 34.05943 | -83.99184 | 2023 ft | 96 kts | 58° |
| 2026-04-25 17:18 | 34.06290 | -83.98461 | 1991 ft | 101 kts | 56° |
| 2026-04-25 17:19 | 34.06632 | -83.97800 | 2013 ft | 93 kts | 62° |
| 2026-04-25 17:19 | 34.06995 | -83.97113 | 2022 ft | 101 kts | 59° |
| 2026-04-25 17:19 | 34.07368 | -83.96361 | 2036 ft | 108 kts | 57° |
| 2026-04-25 17:19 | 34.07748 | -83.95526 | 2019 ft | 118 kts | 57° |
| 2026-04-25 17:20 | 34.08034 | -83.94954 | 2023 ft | 121 kts | 58° |
| 2026-04-25 17:20 | 34.08590 | -83.93797 | 2012 ft | 118 kts | 58° |
| 2026-04-25 17:20 | 34.09011 | -83.92949 | 2031 ft | 116 kts | 57° |
| 2026-04-25 17:20 | 34.09446 | -83.92080 | 2002 ft | 120 kts | 58° |
| 2026-04-25 17:21 | 34.09856 | -83.91200 | 1989 ft | 122 kts | 58° |
| 2026-04-25 17:21 | 34.10309 | -83.90346 | 1996 ft | 121 kts | 56° |
| 2026-04-25 17:21 | 34.10748 | -83.89491 | 1994 ft | 118 kts | 60° |
| 2026-04-25 17:21 | 34.11180 | -83.88651 | 1998 ft | 119 kts | 60° |
| 2026-04-25 17:22 | 34.11613 | -83.87800 | 2010 ft | 120 kts | 61° |
| 2026-04-25 17:22 | 34.11916 | -83.87216 | 2018 ft | 125 kts | 57° |
| 2026-04-25 17:22 | 34.12514 | -83.86037 | 1946 ft | 129 kts | 56° |
| 2026-04-25 17:22 | 34.12960 | -83.85157 | 2017 ft | 122 kts | 56° |
| 2026-04-25 17:23 | 34.13404 | -83.84265 | 2035 ft | 121 kts | 60° |
| 2026-04-25 17:23 | 34.13778 | -83.83384 | 2023 ft | 125 kts | 63° |
| 2026-04-25 17:23 | 34.14222 | -83.82524 | 2056 ft | 116 kts | 58° |
| 2026-04-25 17:23 | 34.14644 | -83.81697 | 1995 ft | 115 kts | 58° |
| 2026-04-25 17:24 | 34.15060 | -83.80886 | 1895 ft | 115 kts | 58° |
| 2026-04-25 17:24 | 34.15264 | -83.79982 | 1787 ft | 115 kts | 106° |
| 2026-04-25 17:24 | 34.14888 | -83.79149 | 1693 ft | 112 kts | 120° |
| 2026-04-25 17:24 | 34.14499 | -83.78336 | 1594 ft | 113 kts | 121° |
| 2026-04-25 17:25 | 34.14127 | -83.77567 | 1565 ft | 107 kts | 121° |
| 2026-04-25 17:25 | 34.13808 | -83.76730 | 1429 ft | 114 kts | 117° |
| 2026-04-25 17:25 | 34.13515 | -83.75841 | 1425 ft | 106 kts | 117° |
| 2026-04-25 17:25 | 34.13304 | -83.75017 | 1395 ft | 107 kts | 94° |
| 2026-04-25 17:26 | 34.13550 | -83.74275 | 1493 ft | 87 kts | 55° |
| 2026-04-25 17:26 | 34.13855 | -83.73668 | 1479 ft | 84 kts | 58° |
| 2026-04-25 17:26 | 34.14165 | -83.73072 | 1486 ft | 83 kts | 54° |
| 2026-04-25 17:26 | 34.14442 | -83.72468 | 1491 ft | 83 kts | 62° |
| 2026-04-25 17:27 | 34.14714 | -83.71842 | 1517 ft | 85 kts | 60° |
| 2026-04-25 17:27 | 34.14990 | -83.71178 | 1504 ft | 89 kts | 58° |
| 2026-04-25 17:27 | 34.15269 | -83.70484 | 1495 ft | 94 kts | 65° |
| 2026-04-25 17:27 | 34.15369 | -83.70248 | 1510 ft | 94 kts | 61° |
| 2026-04-25 17:28 | 34.15895 | -83.69026 | 1494 ft | 98 kts | 63° |
| 2026-04-25 17:28 | 34.16198 | -83.68318 | 1485 ft | 94 kts | 64° |
| 2026-04-25 17:28 | 34.16483 | -83.67638 | 1490 ft | 90 kts | 65° |
| 2026-04-25 17:28 | 34.16762 | -83.66993 | 1481 ft | 82 kts | 63° |
| 2026-04-25 17:29 | 34.17011 | -83.66393 | 1527 ft | 81 kts | 66° |
| 2026-04-25 17:29 | 34.17277 | -83.65759 | 1522 ft | 89 kts | 62° |
| 2026-04-25 17:29 | 34.17578 | -83.65040 | 1532 ft | 101 kts | 62° |
| 2026-04-25 17:29 | 34.17911 | -83.64232 | 1525 ft | 111 kts | 64° |
| 2026-04-25 17:30 | 34.18271 | -83.63375 | 1503 ft | 117 kts | 62° |
| 2026-04-25 17:30 | 34.18642 | -83.62494 | 1502 ft | 117 kts | 62° |
| 2026-04-25 17:30 | 34.19014 | -83.61627 | 1501 ft | 114 kts | 63° |
| 2026-04-25 17:30 | 34.19385 | -83.60783 | 1488 ft | 114 kts | 61° |
| 2026-04-25 17:31 | 34.19753 | -83.59932 | 1499 ft | 115 kts | 62° |
| 2026-04-25 17:31 | 34.20120 | -83.59090 | 1514 ft | 112 kts | 63° |
| 2026-04-25 17:31 | 34.20479 | -83.58243 | 1507 ft | 116 kts | 63° |
| 2026-04-25 17:31 | 34.20847 | -83.57372 | 1507 ft | 116 kts | 63° |
| 2026-04-25 17:32 | 34.21211 | -83.56506 | 1493 ft | 113 kts | 63° |
| 2026-04-25 17:32 | 34.21578 | -83.55654 | 1519 ft | 116 kts | 64° |
| 2026-04-25 17:32 | 34.21962 | -83.54773 | 1497 ft | 118 kts | 66° |
| 2026-04-25 17:32 | 34.22338 | -83.53900 | 1496 ft | 117 kts | 63° |
| 2026-04-25 17:33 | 34.22716 | -83.53013 | 1508 ft | 119 kts | 63° |
| 2026-04-25 17:33 | 34.23092 | -83.52102 | 1499 ft | 121 kts | 63° |
| 2026-04-25 17:33 | 34.23459 | -83.51210 | 1494 ft | 117 kts | 64° |
| 2026-04-25 17:33 | 34.23826 | -83.50328 | 1502 ft | 120 kts | 63° |
| 2026-04-25 17:34 | 34.24205 | -83.49437 | 1496 ft | 118 kts | 66° |
| 2026-04-25 17:34 | 34.24586 | -83.48556 | 1492 ft | 118 kts | 64° |
| 2026-04-25 17:34 | 34.24949 | -83.47681 | 1501 ft | 117 kts | 65° |
| 2026-04-25 17:34 | 34.25315 | -83.46810 | 1491 ft | 114 kts | 63° |
| 2026-04-25 17:35 | 34.25672 | -83.45937 | 1496 ft | 117 kts | 63° |
| 2026-04-25 17:35 | 34.26045 | -83.45054 | 1507 ft | 119 kts | 64° |
| 2026-04-25 17:35 | 34.26411 | -83.44161 | 1488 ft | 121 kts | 64° |
| 2026-04-25 17:35 | 34.26801 | -83.43244 | 1470 ft | 121 kts | 63° |
| 2026-04-25 17:36 | 34.27176 | -83.42349 | 1459 ft | 118 kts | 63° |
| 2026-04-25 17:36 | 34.27533 | -83.41484 | 1449 ft | 116 kts | 64° |
| 2026-04-25 17:36 | 34.27907 | -83.40605 | 1449 ft | 116 kts | 63° |
| 2026-04-25 17:36 | 34.28267 | -83.39737 | 1447 ft | 117 kts | 63° |
| 2026-04-25 17:37 | 34.28630 | -83.38855 | 1465 ft | 117 kts | 64° |
| 2026-04-25 17:37 | 34.29044 | -83.38007 | 1456 ft | 117 kts | 54° |
| 2026-04-25 17:37 | 34.29564 | -83.37267 | 1449 ft | 115 kts | 44° |
| 2026-04-25 17:37 | 34.30121 | -83.36577 | 1459 ft | 115 kts | 44° |
| 2026-04-25 17:38 | 34.30677 | -83.35917 | 1445 ft | 113 kts | 43° |
| 2026-04-25 17:38 | 34.30869 | -83.35694 | 1460 ft | 114 kts | 44° |
| 2026-04-25 17:38 | 34.31840 | -83.34534 | 1459 ft | 120 kts | 44° |
| 2026-04-25 17:38 | 34.32419 | -83.33824 | 1461 ft | 119 kts | 46° |
| 2026-04-25 17:39 | 34.33007 | -83.33119 | 1453 ft | 116 kts | 47° |
| 2026-04-25 17:39 | 34.33578 | -83.32442 | 1450 ft | 115 kts | 44° |
| 2026-04-25 17:39 | 34.34145 | -83.31774 | 1446 ft | 112 kts | 44° |
| 2026-04-25 17:39 | 34.34698 | -83.31115 | 1469 ft | 109 kts | 44° |
| 2026-04-25 17:40 | 34.35244 | -83.30442 | 1462 ft | 115 kts | 44° |
| 2026-04-25 17:40 | 34.35906 | -83.29968 | 1410 ft | 115 kts | 341° |
| 2026-04-25 17:40 | 34.35816 | -83.29856 | 771 ft | 0 kts | 79° |
| 2026-04-25 17:40 | 34.35836 | -83.29874 | 870 ft | 0 kts | 258° |
| 2026-04-25 17:41 | 34.35872 | -83.29666 | 1190 ft | 96 kts | 258° |
| 2026-04-25 17:41 | 34.35719 | -83.30113 | 907 ft | 75 kts | 220° |
| 2026-04-25 17:41 | 34.35270 | -83.30438 | 1051 ft | 64 kts | 206° |
| 2026-04-25 17:41 | 34.34939 | -83.30810 | 1093 ft | 74 kts | 246° |
| 2026-04-25 17:42 | 34.35031 | -83.31306 | 1308 ft | 69 kts | 345° |
| 2026-04-25 17:42 | 34.35186 | -83.30853 | 1344 ft | 72 kts | 108° |
| 2026-04-25 17:42 | 34.35444 | -83.30346 | 1313 ft | 90 kts | 45° |
| 2026-04-25 17:42 | 34.36010 | -83.29740 | 1208 ft | 108 kts | 41° |
| 2026-04-25 17:43 | 34.36564 | -83.29207 | 1435 ft | 89 kts | 37° |
| 2026-04-25 17:43 | 34.36932 | -83.28786 | 1624 ft | 79 kts | 44° |
| 2026-04-25 17:43 | 34.37331 | -83.28226 | 1576 ft | 96 kts | 72° |
| 2026-04-25 17:43 | 34.37316 | -83.27385 | 1537 ft | 107 kts | 94° |
| 2026-04-25 17:44 | 34.37346 | -83.26436 | 1467 ft | 118 kts | 78° |
| 2026-04-25 17:44 | 34.37707 | -83.25544 | 1463 ft | 119 kts | 59° |
| 2026-04-25 17:44 | 34.38132 | -83.24695 | 1458 ft | 119 kts | 59° |
| 2026-04-25 17:44 | 34.38563 | -83.23828 | 1453 ft | 123 kts | 58° |
| 2026-04-25 17:45 | 34.38992 | -83.22940 | 1461 ft | 123 kts | 59° |
| 2026-04-25 17:45 | 34.39138 | -83.22656 | 1461 ft | 122 kts | 58° |
| 2026-04-25 17:45 | 34.39873 | -83.21194 | 1453 ft | 120 kts | 59° |
| 2026-04-25 17:45 | 34.40304 | -83.20337 | 1452 ft | 119 kts | 57° |
| 2026-04-25 17:46 | 34.40730 | -83.19478 | 1455 ft | 120 kts | 59° |
| 2026-04-25 17:46 | 34.41157 | -83.18603 | 1465 ft | 121 kts | 59° |
| 2026-04-25 17:46 | 34.41596 | -83.17737 | 1453 ft | 121 kts | 59° |
| 2026-04-25 17:46 | 34.42020 | -83.16881 | 1451 ft | 119 kts | 58° |
| 2026-04-25 17:47 | 34.42445 | -83.16056 | 1460 ft | 112 kts | 57° |
| 2026-04-25 17:47 | 34.42851 | -83.15260 | 1446 ft | 110 kts | 59° |
| 2026-04-25 17:47 | 34.43242 | -83.14459 | 1445 ft | 109 kts | 58° |
| 2026-04-25 17:47 | 34.43619 | -83.13697 | 1468 ft | 103 kts | 57° |
| 2026-04-25 17:48 | 34.44382 | -83.12112 | 1463 ft | 108 kts | 55° |
| 2026-04-25 17:48 | 34.44805 | -83.11333 | 1465 ft | 112 kts | 50° |
| 2026-04-25 17:48 | 34.45292 | -83.10588 | 1457 ft | 116 kts | 47° |
| 2026-04-25 17:49 | 34.45803 | -83.09843 | 1471 ft | 115 kts | 50° |
| 2026-04-25 17:49 | 34.46260 | -83.09076 | 1468 ft | 112 kts | 62° |
| 2026-04-25 17:49 | 34.46616 | -83.08238 | 1481 ft | 112 kts | 62° |
| 2026-04-25 17:49 | 34.46974 | -83.07406 | 1471 ft | 111 kts | 64° |
| 2026-04-25 17:50 | 34.47326 | -83.06568 | 1476 ft | 111 kts | 59° |
| 2026-04-25 17:50 | 34.47671 | -83.05701 | 1485 ft | 116 kts | 63° |
| 2026-04-25 17:50 | 34.48040 | -83.04831 | 1481 ft | 117 kts | 62° |
| 2026-04-25 17:50 | 34.48408 | -83.03956 | 1479 ft | 116 kts | 62° |
| 2026-04-25 17:51 | 34.48779 | -83.03073 | 1477 ft | 118 kts | 63° |
| 2026-04-25 17:51 | 34.49154 | -83.02187 | 1471 ft | 119 kts | 62° |
| 2026-04-25 17:51 | 34.49452 | -83.01241 | 1471 ft | 123 kts | 68° |
| 2026-04-25 17:51 | 34.49753 | -83.00269 | 1482 ft | 124 kts | 69° |
| 2026-04-25 17:52 | 34.50059 | -82.99304 | 1478 ft | 119 kts | 67° |
| 2026-04-25 17:52 | 34.50156 | -82.98985 | 1453 ft | 119 kts | 68° |
| 2026-04-25 17:52 | 34.50458 | -82.97449 | 1458 ft | 108 kts | 77° |
| 2026-04-25 17:52 | 34.50624 | -82.96588 | 1460 ft | 100 kts | 76° |
| 2026-04-25 17:53 | 34.50786 | -82.95762 | 1456 ft | 101 kts | 78° |
| 2026-04-25 17:53 | 34.50939 | -82.94955 | 1447 ft | 97 kts | 76° |
| 2026-04-25 17:53 | 34.51087 | -82.94167 | 1453 ft | 98 kts | 80° |
| 2026-04-25 17:53 | 34.51113 | -82.93366 | 1474 ft | 99 kts | 83° |
| 2026-04-25 17:54 | 34.51172 | -82.92786 | 1498 ft | 113 kts | 86° |
| 2026-04-25 17:54 | 34.51211 | -82.91773 | 1489 ft | 125 kts | 83° |
| 2026-04-25 17:54 | 34.51291 | -82.90743 | 1476 ft | 123 kts | 84° |
| 2026-04-25 17:54 | 34.51375 | -82.89728 | 1473 ft | 119 kts | 83° |
| 2026-04-25 17:55 | 34.51458 | -82.88723 | 1463 ft | 119 kts | 82° |
| 2026-04-25 17:55 | 34.51555 | -82.87727 | 1457 ft | 119 kts | 77° |
| 2026-04-25 17:55 | 34.51818 | -82.86782 | 1447 ft | 118 kts | 66° |
| 2026-04-25 17:55 | 34.52123 | -82.85900 | 1462 ft | 113 kts | 65° |
| 2026-04-25 17:56 | 34.52430 | -82.85018 | 1473 ft | 116 kts | 69° |
| 2026-04-25 17:56 | 34.52756 | -82.84100 | 1470 ft | 120 kts | 68° |
| 2026-04-25 17:56 | 34.53161 | -82.83209 | 1469 ft | 121 kts | 59° |
| 2026-04-25 17:56 | 34.53637 | -82.82371 | 1463 ft | 117 kts | 50° |
| 2026-04-25 17:57 | 34.54094 | -82.81576 | 1466 ft | 116 kts | 53° |
| 2026-04-25 17:57 | 34.54548 | -82.80782 | 1451 ft | 114 kts | 60° |
| 2026-04-25 17:57 | 34.54921 | -82.79949 | 1480 ft | 114 kts | 62° |
| 2026-04-25 17:57 | 34.55158 | -82.79359 | 1469 ft | 119 kts | 58° |
| 2026-04-25 17:58 | 34.55589 | -82.78096 | 1483 ft | 125 kts | 66° |
| 2026-04-25 17:58 | 34.55920 | -82.77140 | 1476 ft | 123 kts | 68° |
| 2026-04-25 17:58 | 34.56243 | -82.76178 | 1479 ft | 122 kts | 69° |
| 2026-04-25 17:58 | 34.56499 | -82.75188 | 1473 ft | 123 kts | 73° |
| 2026-04-25 17:59 | 34.56756 | -82.74187 | 1481 ft | 125 kts | 74° |
| 2026-04-25 17:59 | 34.57009 | -82.73175 | 1464 ft | 124 kts | 74° |
| 2026-04-25 17:59 | 34.57258 | -82.72174 | 1472 ft | 125 kts | 66° |
| 2026-04-25 17:59 | 34.57647 | -82.71252 | 1476 ft | 118 kts | 64° |
| 2026-04-25 18:00 | 34.58040 | -82.70350 | 1459 ft | 118 kts | 62° |
| 2026-04-25 18:00 | 34.58395 | -82.69497 | 1470 ft | 115 kts | 63° |
| 2026-04-25 18:00 | 34.58734 | -82.68594 | 1478 ft | 121 kts | 69° |
| 2026-04-25 18:00 | 34.59013 | -82.67632 | 1470 ft | 123 kts | 74° |
| 2026-04-25 18:01 | 34.59349 | -82.66667 | 1469 ft | 125 kts | 69° |
| 2026-04-25 18:01 | 34.59730 | -82.65719 | 1479 ft | 125 kts | 60° |
| 2026-04-25 18:01 | 34.60105 | -82.64747 | 1489 ft | 123 kts | 67° |
| 2026-04-25 18:01 | 34.60484 | -82.63781 | 1465 ft | 130 kts | 64° |
| 2026-04-25 18:02 | 34.61004 | -82.62869 | 1471 ft | 132 kts | 46° |
| 2026-04-25 18:02 | 34.61575 | -82.62004 | 1469 ft | 131 kts | 52° |
| 2026-04-25 18:02 | 34.62142 | -82.61165 | 1481 ft | 128 kts | 48° |
| 2026-04-25 18:02 | 34.62713 | -82.60331 | 1450 ft | 126 kts | 52° |
| 2026-04-25 18:03 | 34.63264 | -82.59508 | 1448 ft | 125 kts | 46° |
| 2026-04-25 18:03 | 34.63794 | -82.58682 | 1460 ft | 125 kts | 45° |
| 2026-04-25 18:03 | 34.64386 | -82.57939 | 1463 ft | 121 kts | 39° |
| 2026-04-25 18:03 | 34.64980 | -82.57201 | 1461 ft | 126 kts | 47° |
| 2026-04-25 18:04 | 34.65587 | -82.56423 | 1468 ft | 128 kts | 45° |
| 2026-04-25 18:04 | 34.66168 | -82.55595 | 1476 ft | 128 kts | 44° |
| 2026-04-25 18:04 | 34.66764 | -82.54795 | 1468 ft | 125 kts | 42° |
| 2026-04-25 18:04 | 34.67341 | -82.53997 | 1466 ft | 125 kts | 48° |
| 2026-04-25 18:05 | 34.67837 | -82.53114 | 1468 ft | 127 kts | 59° |
| 2026-04-25 18:05 | 34.68234 | -82.52174 | 1471 ft | 124 kts | 59° |
| 2026-04-25 18:05 | 34.68670 | -82.51247 | 1471 ft | 124 kts | 52° |
| 2026-04-25 18:05 | 34.69248 | -82.50526 | 1475 ft | 115 kts | 31° |
| 2026-04-25 18:06 | 34.69977 | -82.50105 | 1474 ft | 115 kts | 19° |
| 2026-04-25 18:06 | 34.70745 | -82.49761 | 1474 ft | 119 kts | 13° |
| 2026-04-25 18:06 | 34.71530 | -82.49427 | 1487 ft | 122 kts | 12° |
| 2026-04-25 18:06 | 34.72348 | -82.49128 | 1474 ft | 123 kts | 15° |
| 2026-04-25 18:07 | 34.73129 | -82.48793 | 1483 ft | 120 kts | 21° |
| 2026-04-25 18:07 | 34.73882 | -82.48342 | 1491 ft | 115 kts | 24° |
| 2026-04-25 18:07 | 34.74633 | -82.47970 | 1487 ft | 119 kts | 17° |
| 2026-04-25 18:07 | 34.75414 | -82.47579 | 1493 ft | 124 kts | 17° |
| 2026-04-25 18:08 | 34.76238 | -82.47213 | 1467 ft | 130 kts | 18° |
| 2026-04-25 18:08 | 34.77057 | -82.46778 | 1484 ft | 130 kts | 29° |
| 2026-04-25 18:08 | 34.77758 | -82.46092 | 1485 ft | 133 kts | 39° |
| 2026-04-25 18:08 | 34.78387 | -82.45278 | 1480 ft | 131 kts | 48° |
| 2026-04-25 18:09 | 34.79006 | -82.44422 | 1479 ft | 136 kts | 58° |
| 2026-04-25 18:09 | 34.79279 | -82.43364 | 1486 ft | 130 kts | 91° |
| 2026-04-25 18:09 | 34.79165 | -82.42280 | 1479 ft | 132 kts | 92° |
| 2026-04-25 18:09 | 34.79212 | -82.41550 | 1479 ft | 130 kts | 85° |
| 2026-04-25 18:10 | 34.79425 | -82.40228 | 1463 ft | 122 kts | 88° |
| 2026-04-25 18:10 | 34.79605 | -82.39191 | 1476 ft | 129 kts | 81° |
| 2026-04-25 18:10 | 34.79788 | -82.38130 | 1477 ft | 126 kts | 83° |
| 2026-04-25 18:10 | 34.79969 | -82.37102 | 1479 ft | 123 kts | 82° |
| 2026-04-25 18:11 | 34.80130 | -82.36112 | 1467 ft | 116 kts | 79° |
| 2026-04-25 18:11 | 34.80329 | -82.35175 | 1466 ft | 118 kts | 65° |
| 2026-04-25 18:11 | 34.80692 | -82.34278 | 1491 ft | 116 kts | 58° |
| 2026-04-25 18:11 | 34.81174 | -82.33434 | 1455 ft | 128 kts | 54° |
| 2026-04-25 18:12 | 34.81622 | -82.32610 | 1481 ft | 116 kts | 54° |
| 2026-04-25 18:12 | 34.82060 | -82.31753 | 1481 ft | 123 kts | 56° |
| 2026-04-25 18:12 | 34.82537 | -82.30884 | 1484 ft | 122 kts | 54° |
| 2026-04-25 18:12 | 34.83059 | -82.30077 | 1484 ft | 121 kts | 47° |
| 2026-04-25 18:13 | 34.83549 | -82.29240 | 1495 ft | 123 kts | 48° |
| 2026-04-25 18:13 | 34.84073 | -82.28395 | 1477 ft | 125 kts | 53° |
| 2026-04-25 18:13 | 34.84595 | -82.27564 | 1489 ft | 123 kts | 48° |
| 2026-04-25 18:14 | 34.85704 | -82.25881 | 1485 ft | 127 kts | 49° |
| 2026-04-25 18:14 | 34.86216 | -82.24994 | 1464 ft | 129 kts | 65° |
| 2026-04-25 18:14 | 34.86567 | -82.24021 | 1470 ft | 125 kts | 66° |
| 2026-04-25 18:14 | 34.86953 | -82.23109 | 1463 ft | 117 kts | 61° |
| 2026-04-25 18:15 | 34.87290 | -82.22192 | 1478 ft | 121 kts | 67° |
| 2026-04-25 18:15 | 34.87642 | -82.21266 | 1482 ft | 117 kts | 67° |
| 2026-04-25 18:15 | 34.88017 | -82.20366 | 1471 ft | 121 kts | 68° |
| 2026-04-25 18:15 | 34.88387 | -82.19457 | 1478 ft | 118 kts | 68° |
| 2026-04-25 18:16 | 34.88776 | -82.18543 | 1483 ft | 122 kts | 64° |
| 2026-04-25 18:16 | 34.89144 | -82.17675 | 1462 ft | 113 kts | 68° |
| 2026-04-25 18:16 | 34.89844 | -82.15909 | 1470 ft | 116 kts | 69° |
| 2026-04-25 18:17 | 34.90185 | -82.15017 | 1475 ft | 122 kts | 63° |
| 2026-04-25 18:17 | 34.90555 | -82.14103 | 1470 ft | 119 kts | 65° |
| 2026-04-25 18:17 | 34.90920 | -82.13156 | 1475 ft | 125 kts | 66° |
| 2026-04-25 18:17 | 34.91314 | -82.12206 | 1486 ft | 126 kts | 63° |
| 2026-04-25 18:18 | 34.91687 | -82.11180 | 1479 ft | 137 kts | 70° |
| 2026-04-25 18:18 | 34.92104 | -82.10144 | 1466 ft | 135 kts | 65° |
| 2026-04-25 18:18 | 34.92509 | -82.09129 | 1465 ft | 129 kts | 58° |
| 2026-04-25 18:18 | 34.92957 | -82.08197 | 1451 ft | 127 kts | 58° |
| 2026-04-25 18:19 | 34.93407 | -82.07344 | 1461 ft | 113 kts | 59° |
| 2026-04-25 18:19 | 34.93810 | -82.06537 | 1475 ft | 110 kts | 58° |
| 2026-04-25 18:19 | 34.94228 | -82.05729 | 1436 ft | 112 kts | 59° |
| 2026-04-25 18:19 | 34.94603 | -82.04942 | 1458 ft | 111 kts | 57° |
| 2026-04-25 18:20 | 34.95036 | -82.04149 | 1494 ft | 108 kts | 51° |
| 2026-04-25 18:20 | 34.95465 | -82.03345 | 1478 ft | 117 kts | 55° |
| 2026-04-25 18:20 | 34.95912 | -82.02501 | 1474 ft | 121 kts | 57° |
| 2026-04-25 18:20 | 34.96194 | -82.01976 | 1466 ft | 124 kts | 55° |
| 2026-04-25 18:21 | 34.96740 | -82.01187 | 1517 ft | 123 kts | 58° |
| 2026-04-25 18:21 | 34.97080 | -82.00221 | 1473 ft | 125 kts | 71° |
| 2026-04-25 18:21 | 34.97361 | -81.99223 | 1469 ft | 122 kts | 73° |
| 2026-04-25 18:21 | 34.97723 | -81.98306 | 1455 ft | 121 kts | 56° |
| 2026-04-25 18:22 | 34.98123 | -81.97403 | 1457 ft | 122 kts | 62° |
| 2026-04-25 18:22 | 34.98259 | -81.97107 | 1470 ft | 124 kts | 60° |
| 2026-04-25 18:22 | 34.99020 | -81.95597 | 1472 ft | 123 kts | 57° |
| 2026-04-25 18:22 | 34.99452 | -81.94731 | 1470 ft | 117 kts | 60° |
| 2026-04-25 18:23 | 34.99891 | -81.93890 | 1493 ft | 117 kts | 54° |
| 2026-04-25 18:23 | 35.00374 | -81.93077 | 1460 ft | 116 kts | 56° |
| 2026-04-25 18:23 | 35.00834 | -81.92268 | 1444 ft | 115 kts | 60° |
| 2026-04-25 18:23 | 35.01276 | -81.91465 | 1453 ft | 114 kts | 57° |
| 2026-04-25 18:24 | 35.01696 | -81.90633 | 1461 ft | 115 kts | 63° |
| 2026-04-25 18:24 | 35.02041 | -81.89764 | 1468 ft | 113 kts | 66° |
| 2026-04-25 18:24 | 35.02396 | -81.88874 | 1476 ft | 120 kts | 69° |
| 2026-04-25 18:24 | 35.02698 | -81.87902 | 1470 ft | 124 kts | 71° |
| 2026-04-25 18:25 | 35.02991 | -81.86889 | 1454 ft | 129 kts | 73° |
| 2026-04-25 18:25 | 35.03278 | -81.85875 | 1468 ft | 128 kts | 70° |
| 2026-04-25 18:25 | 35.03556 | -81.84823 | 1461 ft | 126 kts | 74° |
| 2026-04-25 18:25 | 35.03841 | -81.83822 | 1456 ft | 126 kts | 72° |
| 2026-04-25 18:26 | 35.04094 | -81.82815 | 1449 ft | 123 kts | 72° |
| 2026-04-25 18:26 | 35.04396 | -81.81846 | 1460 ft | 123 kts | 70° |
| 2026-04-25 18:26 | 35.04741 | -81.80881 | 1439 ft | 124 kts | 67° |
| 2026-04-25 18:26 | 35.05094 | -81.79936 | 1449 ft | 123 kts | 68° |
| 2026-04-25 18:27 | 35.05432 | -81.79012 | 1461 ft | 119 kts | 66° |
| 2026-04-25 18:27 | 35.05788 | -81.78107 | 1439 ft | 118 kts | 68° |
| 2026-04-25 18:27 | 35.06132 | -81.77205 | 1450 ft | 116 kts | 66° |
| 2026-04-25 18:27 | 35.06461 | -81.76287 | 1452 ft | 118 kts | 67° |
| 2026-04-25 18:28 | 35.06810 | -81.75363 | 1461 ft | 120 kts | 68° |
| 2026-04-25 18:28 | 35.07143 | -81.74429 | 1451 ft | 121 kts | 73° |
| 2026-04-25 18:28 | 35.07429 | -81.73461 | 1456 ft | 121 kts | 72° |
| 2026-04-25 18:29 | 35.07968 | -81.71612 | 1453 ft | 126 kts | 72° |
| 2026-04-25 18:29 | 35.08262 | -81.70604 | 1447 ft | 125 kts | 73° |
| 2026-04-25 18:30 | 35.09136 | -81.67736 | 1426 ft | 116 kts | 83° |
| 2026-04-25 18:30 | 35.09071 | -81.66802 | 1453 ft | 111 kts | 99° |
| 2026-04-25 18:30 | 35.09013 | -81.65864 | 1448 ft | 115 kts | 101° |
| 2026-04-25 18:30 | 35.08956 | -81.64897 | 1453 ft | 115 kts | 99° |
| 2026-04-25 18:31 | 35.08884 | -81.63920 | 1446 ft | 114 kts | 100° |
| 2026-04-25 18:31 | 35.08832 | -81.62958 | 1453 ft | 114 kts | 99° |
| 2026-04-25 18:31 | 35.08793 | -81.61968 | 1452 ft | 121 kts | 98° |
| 2026-04-25 18:31 | 35.08730 | -81.60942 | 1465 ft | 119 kts | 98° |
| 2026-04-25 18:32 | 35.08678 | -81.59949 | 1451 ft | 114 kts | 100° |
| 2026-04-25 18:32 | 35.08627 | -81.58965 | 1443 ft | 117 kts | 99° |
| 2026-04-25 18:32 | 35.08544 | -81.57978 | 1458 ft | 116 kts | 102° |
| 2026-04-25 18:32 | 35.08493 | -81.56960 | 1446 ft | 121 kts | 99° |
| 2026-04-25 18:33 | 35.08415 | -81.55899 | 1468 ft | 129 kts | 98° |
| 2026-04-25 18:33 | 35.08331 | -81.54803 | 1436 ft | 128 kts | 98° |
| 2026-04-25 18:33 | 35.08252 | -81.53757 | 1439 ft | 122 kts | 100° |
| 2026-04-25 18:33 | 35.08176 | -81.52709 | 1454 ft | 127 kts | 98° |
| 2026-04-25 18:34 | 35.08069 | -81.51627 | 1445 ft | 125 kts | 100° |
| 2026-04-25 18:34 | 35.07978 | -81.50590 | 1446 ft | 121 kts | 99° |
| 2026-04-25 18:34 | 35.07892 | -81.49550 | 1421 ft | 127 kts | 99° |
| 2026-04-25 18:34 | 35.07816 | -81.48514 | 1429 ft | 121 kts | 97° |
| 2026-04-25 18:35 | 35.07743 | -81.47517 | 1449 ft | 121 kts | 101° |
| 2026-04-25 18:35 | 35.07659 | -81.46469 | 1443 ft | 123 kts | 97° |
| 2026-04-25 18:35 | 35.07571 | -81.45453 | 1447 ft | 118 kts | 99° |
| 2026-04-25 18:35 | 35.07491 | -81.44472 | 1450 ft | 117 kts | 100° |
| 2026-04-25 18:36 | 35.07417 | -81.43456 | 1454 ft | 123 kts | 101° |
| 2026-04-25 18:36 | 35.07329 | -81.42400 | 1451 ft | 125 kts | 99° |
| 2026-04-25 18:36 | 35.07251 | -81.41337 | 1443 ft | 126 kts | 98° |
| 2026-04-25 18:36 | 35.07156 | -81.40283 | 1435 ft | 126 kts | 99° |
| 2026-04-25 18:37 | 35.07075 | -81.39263 | 1449 ft | 117 kts | 99° |
| 2026-04-25 18:37 | 35.06989 | -81.38323 | 1439 ft | 109 kts | 101° |
| 2026-04-25 18:37 | 35.06932 | -81.37403 | 1450 ft | 104 kts | 99° |
| 2026-04-25 18:37 | 35.06887 | -81.36476 | 1449 ft | 117 kts | 100° |
| 2026-04-25 18:38 | 35.06849 | -81.35807 | 1447 ft | 117 kts | 100° |
| 2026-04-25 18:38 | 35.06797 | -81.34845 | 1494 ft | 114 kts | 97° |
| 2026-04-25 18:38 | 35.06750 | -81.33857 | 1466 ft | 114 kts | 99° |
| 2026-04-25 18:38 | 35.06723 | -81.32929 | 1498 ft | 105 kts | 98° |
| 2026-04-25 18:39 | 35.06668 | -81.31999 | 1490 ft | 116 kts | 100° |
| 2026-04-25 18:39 | 35.06596 | -81.31016 | 1501 ft | 114 kts | 98° |
| 2026-04-25 18:39 | 35.06548 | -81.30066 | 1478 ft | 112 kts | 100° |
| 2026-04-25 18:39 | 35.06525 | -81.29130 | 1511 ft | 113 kts | 95° |
| 2026-04-25 18:40 | 35.06461 | -81.28144 | 1494 ft | 117 kts | 99° |
| 2026-04-25 18:40 | 35.06368 | -81.27132 | 1508 ft | 124 kts | 100° |
| 2026-04-25 18:40 | 35.06262 | -81.26057 | 1494 ft | 131 kts | 98° |
| 2026-04-25 18:40 | 35.06168 | -81.24982 | 1476 ft | 125 kts | 102° |
| 2026-04-25 18:41 | 35.06085 | -81.23958 | 1504 ft | 121 kts | 98° |
| 2026-04-25 18:41 | 35.06003 | -81.22921 | 1506 ft | 125 kts | 100° |
| 2026-04-25 18:41 | 35.05945 | -81.21833 | 1508 ft | 131 kts | 99° |
| 2026-04-25 18:41 | 35.05866 | -81.20720 | 1499 ft | 131 kts | 98° |
| 2026-04-25 18:42 | 35.05793 | -81.19642 | 1501 ft | 124 kts | 100° |
| 2026-04-25 18:42 | 35.05723 | -81.18953 | 1498 ft | 124 kts | 100° |
| 2026-04-25 18:42 | 35.05595 | -81.17512 | 1507 ft | 130 kts | 100° |
| 2026-04-25 18:42 | 35.05532 | -81.16420 | 1494 ft | 127 kts | 98° |
| 2026-04-25 18:43 | 35.05460 | -81.15358 | 1507 ft | 123 kts | 96° |
| 2026-04-25 18:43 | 35.05362 | -81.14332 | 1474 ft | 118 kts | 101° |
| 2026-04-25 18:43 | 35.05242 | -81.13373 | 1495 ft | 111 kts | 104° |
| 2026-04-25 18:43 | 35.05189 | -81.12449 | 1506 ft | 112 kts | 97° |
| 2026-04-25 18:44 | 35.05081 | -81.11484 | 1501 ft | 117 kts | 100° |
| 2026-04-25 18:44 | 35.04985 | -81.10468 | 1486 ft | 119 kts | 101° |
| 2026-04-25 18:44 | 35.04909 | -81.09479 | 1464 ft | 109 kts | 98° |
| 2026-04-25 18:44 | 35.04862 | -81.08584 | 1442 ft | 111 kts | 99° |
| 2026-04-25 18:45 | 35.04794 | -81.07656 | 1509 ft | 110 kts | 101° |
| 2026-04-25 18:45 | 35.04715 | -81.06699 | 1520 ft | 114 kts | 100° |
| 2026-04-25 18:45 | 35.04643 | -81.05704 | 1428 ft | 115 kts | 96° |
| 2026-04-25 18:45 | 35.04304 | -81.04961 | 1409 ft | 99 kts | 147° |
| 2026-04-25 18:46 | 35.03807 | -81.04437 | 1281 ft | 91 kts | 152° |
| 2026-04-25 18:46 | 35.03285 | -81.04265 | 1283 ft | 77 kts | 195° |
| 2026-04-25 18:46 | 35.02764 | -81.04356 | 1262 ft | 71 kts | 198° |
| 2026-04-25 18:46 | 35.02315 | -81.04504 | 1310 ft | 59 kts | 195° |
| 2026-04-25 18:47 | 35.01935 | -81.04632 | 1284 ft | 56 kts | 220° |
| 2026-04-25 18:47 | 35.01552 | -81.04835 | 1240 ft | 66 kts | 212° |
| 2026-04-25 18:47 | 35.01078 | -81.05033 | 1172 ft | 70 kts | 209° |
| 2026-04-25 18:47 | 35.00630 | -81.05195 | 921 ft | 63 kts | 206° |
| 2026-04-25 18:48 | 35.00189 | -81.05330 | 860 ft | 73 kts | 205° |
| 2026-04-25 18:48 | 34.99677 | -81.05498 | 743 ft | 78 kts | 198° |
| 2026-04-25 18:48 | 34.99183 | -81.05620 | 671 ft | 61 kts | 197° |
| 2026-04-25 18:48 | 34.98925 | -81.05686 | 660 ft | 20 kts | 194° |
| 2026-04-25 18:49 | 34.98803 | -81.05716 | 661 ft | 16 kts | 193° |
| 2026-04-25 18:49 | 34.98761 | -81.05769 | 662 ft | 9 kts | 277° |
| 2026-04-25 18:49 | 34.98771 | -81.05833 | 663 ft | 7 kts | 278° |
| 2026-04-25 18:49 | 34.98740 | -81.05864 | 663 ft | 6 kts | 193° |
| 2026-04-25 18:50 | 34.98726 | -81.05903 | 663 ft | 6 kts | 281° |
| 2026-04-25 18:50 | 34.98735 | -81.05952 | 663 ft | 6 kts | 297° |
| 2026-04-25 18:50 | 34.98764 | -81.05951 | 663 ft | 6 kts | 15° |
| 2026-04-25 18:50 | 34.98814 | -81.05948 | 663 ft | 7 kts | 351° |
| 2026-04-25 18:51 | 34.98821 | -81.05964 | 663 ft | 0 kts | 270° |